createdAt,value
2023-05-04T00:00:07.371Z,99263.78
2023-05-04T00:03:09.529Z,99263.81
2023-05-04T00:06:11.111Z,99262.97
2023-05-04T00:09:14.063Z,99260.41
2023-05-04T00:12:17.153Z,99253.34
2023-05-04T00:15:18.660Z,99247.19
2023-05-04T00:18:20.239Z,99251.63
2023-05-04T00:21:21.836Z,99246.31
2023-05-04T00:24:23.533Z,99241.88
2023-05-04T00:27:26.528Z,99234.91
2023-05-04T00:30:28.386Z,99236.63
2023-05-04T00:33:30.052Z,99225.06
2023-05-04T00:36:31.697Z,99226.09
2023-05-04T00:39:35.352Z,99224.56
2023-05-04T00:42:38.409Z,99228.28
2023-05-04T00:45:40.368Z,99226.63
2023-05-04T00:48:42.853Z,99214.34
2023-05-04T00:51:45.095Z,99212.59
2023-05-04T00:54:47.377Z,99202.94
2023-05-04T00:57:50.780Z,99205.72
2023-05-04T01:00:52.729Z,99202.25
2023-05-04T01:03:55.181Z,99185.63
2023-05-04T01:07:00.596Z,99191.09
2023-05-04T01:10:04.052Z,99192.81
2023-05-04T01:13:08.599Z,99192.13
2023-05-04T01:16:11.107Z,99185.22
2023-05-04T01:19:12.724Z,99195.91
2023-05-04T01:22:15.804Z,99193.25
2023-05-04T01:25:18.776Z,99188.78
2023-05-04T01:28:24.403Z,99197.59
2023-05-04T01:31:27.390Z,99191.47
2023-05-04T01:34:29.424Z,99192.41
2023-05-04T01:37:32.771Z,99196.09
2023-05-04T01:40:34.334Z,99195.38
2023-05-04T01:43:35.844Z,99192.78
2023-05-04T01:46:39.222Z,99194.63
2023-05-04T01:49:41.285Z,99184.88
2023-05-04T01:52:45.499Z,99189.22
2023-05-04T01:55:47.087Z,99184.69
2023-05-04T01:58:48.680Z,99195.19
2023-05-04T02:01:50.879Z,99184.59
2023-05-04T02:04:52.649Z,99181.94
2023-05-04T02:07:55.743Z,99186.31
2023-05-04T02:10:57.451Z,99182.81
2023-05-04T02:13:59.168Z,99189.91
2023-05-04T02:17:01.010Z,99186.53
2023-05-04T02:20:02.780Z,99190.13
2023-05-04T02:23:05.941Z,99178.69
2023-05-04T02:26:07.564Z,99183.16
2023-05-04T02:29:09.286Z,99177.84
2023-05-04T02:32:10.885Z,99187.50
2023-05-04T02:35:13.012Z,99182.34
2023-05-04T02:38:16.403Z,99183.44
2023-05-04T02:41:17.976Z,99186.94
2023-05-04T02:44:19.682Z,99187.91
2023-05-04T02:47:21.452Z,99184.34
2023-05-04T02:50:23.122Z,99182.69
2023-05-04T02:53:26.226Z,99179.19
2023-05-04T02:56:27.852Z,99173.81
2023-05-04T02:59:29.661Z,99175.56
2023-05-04T03:02:31.522Z,99177.31
2023-05-04T03:05:33.179Z,99174.81
2023-05-04T03:08:36.482Z,99177.44
2023-05-04T03:11:38.024Z,99182.00
2023-05-04T03:14:39.581Z,99172.41
2023-05-04T03:17:41.732Z,99175.84
2023-05-04T03:20:43.354Z,99172.25
2023-05-04T03:23:50.416Z,99175.88
2023-05-04T03:26:52.051Z,99173.34
2023-05-04T03:29:53.875Z,99166.31
2023-05-04T03:32:55.514Z,99157.59
2023-05-04T03:35:57.913Z,99167.19
2023-05-04T03:39:01.188Z,99159.19
2023-05-04T03:42:06.154Z,99157.44
2023-05-04T03:45:08.657Z,99146.84
2023-05-04T03:48:10.780Z,99156.53
2023-05-04T03:51:13.138Z,99152.13
2023-05-04T03:54:17.391Z,99152.97
2023-05-04T03:57:19.261Z,99150.22
2023-05-04T04:00:21.070Z,99150.19
2023-05-04T04:03:33.248Z,99149.31
2023-05-04T04:06:35.075Z,99138.72
2023-05-04T04:09:38.136Z,99144.84
2023-05-04T04:12:42.013Z,99145.69
2023-05-04T04:15:45.788Z,99144.06
2023-05-04T04:18:47.423Z,99142.22
2023-05-04T04:21:49.500Z,99137.75
2023-05-04T04:24:52.812Z,99143.00
2023-05-04T04:27:54.385Z,99139.50
2023-05-04T04:30:56.134Z,99130.53
2023-05-04T04:33:57.863Z,99132.19
2023-05-04T04:36:59.590Z,99136.41
2023-05-04T04:40:04.120Z,99124.78
2023-05-04T04:43:06.063Z,99125.56
2023-05-04T04:46:08.463Z,99129.84
2023-05-04T04:49:12.218Z,99126.16
2023-05-04T04:52:15.529Z,99127.78
2023-05-04T04:55:18.860Z,99125.00
2023-05-04T04:58:21.065Z,99118.69
2023-05-04T05:01:22.768Z,99127.38
2023-05-04T05:04:25.367Z,99130.69
2023-05-04T05:07:27.313Z,99121.63
2023-05-04T05:10:30.881Z,99124.94
2023-05-04T05:13:32.656Z,99123.94
2023-05-04T05:16:34.377Z,99124.59
2023-05-04T05:19:37.337Z,99128.88
2023-05-04T05:22:39.150Z,99121.59
2023-05-04T05:25:43.809Z,99132.00
2023-05-04T05:28:45.481Z,99126.38
2023-05-04T05:31:47.199Z,99134.06
2023-05-04T05:34:48.910Z,99124.09
2023-05-04T05:37:50.892Z,99127.38
2023-05-04T05:40:53.936Z,99124.47
2023-05-04T05:43:55.965Z,99127.66
2023-05-04T05:46:57.756Z,99116.63
2023-05-04T05:49:59.534Z,99125.22
2023-05-04T05:53:01.501Z,99121.59
2023-05-04T05:56:05.094Z,99117.09
2023-05-04T05:59:06.717Z,99116.75
2023-05-04T06:02:08.508Z,99119.22
2023-05-04T06:05:10.989Z,99121.66
2023-05-04T06:08:12.874Z,99122.38
2023-05-04T06:11:15.771Z,99117.81
2023-05-04T06:14:17.362Z,99121.06
2023-05-04T06:17:19.321Z,99124.44
2023-05-04T06:20:21.197Z,99117.84
2023-05-04T06:23:23.117Z,99117.00
2023-05-04T06:26:26.012Z,99115.09
2023-05-04T06:29:27.901Z,99116.75
2023-05-04T06:32:29.809Z,99109.81
2023-05-04T06:35:31.750Z,99104.50
2023-05-04T06:38:35.640Z,99111.47
2023-05-04T06:41:40.893Z,99108.50
2023-05-04T06:44:42.830Z,99109.09
2023-05-04T06:47:44.470Z,99108.69
2023-05-04T06:50:46.056Z,99102.41
2023-05-04T06:53:48.070Z,99104.03
2023-05-04T06:56:51.490Z,99107.25
2023-05-04T06:59:53.293Z,99104.34
2023-05-04T07:02:55.070Z,99110.22
2023-05-04T07:05:57.026Z,99116.31
2023-05-04T07:08:58.533Z,99114.31
2023-05-04T07:12:01.411Z,99118.44
2023-05-04T07:15:03.363Z,99124.59
2023-05-04T07:18:05.366Z,99118.19
2023-05-04T07:21:25.955Z,99124.16
2023-05-04T07:24:29.682Z,99108.81
2023-05-04T07:27:34.868Z,99114.00
2023-05-04T07:30:36.623Z,99113.06
2023-05-04T07:33:38.419Z,99107.56
2023-05-04T07:36:42.031Z,99108.91
2023-05-04T07:39:45.064Z,99116.50
2023-05-04T07:42:48.231Z,99114.50
2023-05-04T07:45:50.336Z,99107.00
2023-05-04T07:48:52.096Z,99101.84
2023-05-04T07:51:54.133Z,99099.09
2023-05-04T07:54:56.405Z,99101.50
2023-05-04T07:57:59.388Z,99097.53
2023-05-04T08:01:01.152Z,99106.84
2023-05-04T08:04:02.887Z,99100.78
2023-05-04T08:07:04.562Z,99096.28
2023-05-04T08:10:07.032Z,99091.59
2023-05-04T08:13:10.141Z,99082.75
2023-05-04T08:16:12.593Z,99076.34
2023-05-04T08:19:14.561Z,99074.47
2023-05-04T08:22:16.180Z,99078.81
2023-05-04T08:25:18.133Z,99079.28
2023-05-04T08:28:22.310Z,99080.34
2023-05-04T08:31:24.000Z,99072.19
2023-05-04T08:34:26.796Z,99067.81
2023-05-04T08:37:28.651Z,99078.88
2023-05-04T08:40:30.522Z,99077.50
2023-05-04T08:43:35.876Z,99070.78
2023-05-04T08:46:37.742Z,99067.38
2023-05-04T08:49:39.377Z,99058.75
2023-05-04T08:52:43.869Z,99063.00
2023-05-04T08:55:47.472Z,99054.94
2023-05-04T08:58:51.018Z,99060.53
2023-05-04T09:01:54.825Z,99056.25
2023-05-04T09:04:56.523Z,99055.53
2023-05-04T09:07:58.340Z,99053.72
2023-05-04T09:11:00.096Z,99051.03
2023-05-04T09:14:03.154Z,99053.69
2023-05-04T09:17:13.533Z,99053.91
2023-05-04T09:20:15.215Z,99045.81
2023-05-04T09:23:18.098Z,99040.44
2023-05-04T09:26:27.717Z,99044.97
2023-05-04T09:29:32.422Z,99042.00
2023-05-04T09:32:36.922Z,99042.97
2023-05-04T09:35:40.162Z,99038.81
2023-05-04T09:38:44.440Z,99032.06
2023-05-04T09:41:46.337Z,99031.88
2023-05-04T09:44:59.560Z,99031.84
2023-05-04T09:48:01.443Z,99021.19
2023-05-04T09:51:04.241Z,99023.88
2023-05-04T09:54:06.382Z,99024.81
2023-05-04T09:57:11.506Z,99013.53
2023-05-04T10:00:16.300Z,99015.34
2023-05-04T10:03:18.591Z,99017.31
2023-05-04T10:06:21.607Z,99010.84
2023-05-04T10:09:23.379Z,99005.84
2023-05-04T10:12:25.023Z,99009.16
2023-05-04T10:15:28.233Z,99006.59
2023-05-04T10:18:36.675Z,99003.03
2023-05-04T10:21:44.933Z,99004.69
2023-05-04T10:24:55.396Z,98997.22
2023-05-04T10:28:01.729Z,98994.22
2023-05-04T10:31:06.293Z,98994.22
2023-05-04T10:34:08.428Z,98986.75
2023-05-04T10:37:16.583Z,98986.84
2023-05-04T10:40:18.300Z,98989.84
2023-05-04T10:43:23.011Z,98975.34
2023-05-04T10:46:26.285Z,98974.50
2023-05-04T10:49:27.907Z,98972.75
2023-05-04T10:52:29.683Z,98977.09
2023-05-04T10:55:38.826Z,98964.47
2023-05-04T10:58:40.703Z,98964.16
2023-05-04T11:01:47.423Z,98965.91
2023-05-04T11:04:58.382Z,98961.00
2023-05-04T11:08:00.551Z,98957.22
2023-05-04T11:11:02.988Z,98949.19
2023-05-04T11:14:04.791Z,98936.91
2023-05-04T11:17:23.941Z,98933.03
2023-05-04T11:20:29.862Z,98945.56
2023-05-04T11:23:32.305Z,98944.22
2023-05-04T11:26:35.300Z,98929.72
2023-05-04T11:29:36.945Z,98921.56
2023-05-04T11:32:42.998Z,98909.00
2023-05-04T11:35:45.257Z,98909.31
2023-05-04T11:38:47.778Z,98908.66
2023-05-04T11:41:49.742Z,98912.56
2023-05-04T11:44:51.773Z,98897.91
2023-05-04T11:47:56.755Z,98894.66
2023-05-04T11:50:58.671Z,98896.06
2023-05-04T11:54:01.283Z,98888.81
2023-05-04T11:57:04.262Z,98884.50
2023-05-04T12:00:07.042Z,98881.19
2023-05-04T12:03:14.461Z,98878.94
2023-05-04T12:06:16.469Z,98880.25
2023-05-04T12:09:18.062Z,98891.53
2023-05-04T12:12:21.397Z,98891.84
2023-05-04T12:15:30.570Z,98888.06
2023-05-04T12:18:34.134Z,98884.94
2023-05-04T12:21:36.222Z,98887.22
2023-05-04T12:24:39.839Z,98881.81
2023-05-04T12:27:42.148Z,98877.56
2023-05-04T12:30:44.026Z,98873.16
2023-05-04T12:33:47.567Z,98876.00
2023-05-04T12:36:50.788Z,98862.56
2023-05-04T12:39:52.372Z,98855.06
2023-05-04T12:42:54.124Z,98854.19
2023-05-04T12:45:56.097Z,98852.00
2023-05-04T12:48:59.185Z,98848.72
2023-05-04T12:52:00.935Z,98851.50
2023-05-04T12:55:03.256Z,98846.47
2023-05-04T12:58:05.098Z,98841.50
2023-05-04T13:01:07.415Z,98832.69
2023-05-04T13:04:10.544Z,98832.34
2023-05-04T13:07:14.766Z,98830.03
2023-05-04T13:10:16.935Z,98825.56
2023-05-04T13:13:19.340Z,98818.44
2023-05-04T13:16:21.202Z,98824.84
2023-05-04T13:19:24.293Z,98810.50
2023-05-04T13:22:27.159Z,98812.44
2023-05-04T13:25:28.852Z,98801.44
2023-05-04T13:28:30.807Z,98804.75
2023-05-04T13:31:32.528Z,98795.53
2023-05-04T13:34:36.497Z,98789.78
2023-05-04T13:37:38.474Z,98782.03
2023-05-04T13:40:40.577Z,98782.03
2023-05-04T13:43:42.141Z,98779.19
2023-05-04T13:46:43.927Z,98767.75
2023-05-04T13:49:47.633Z,98762.34
2023-05-04T13:52:49.192Z,98767.88
2023-05-04T13:55:50.971Z,98757.91
2023-05-04T13:58:53.914Z,98748.75
2023-05-04T14:01:56.159Z,98754.44
2023-05-04T14:04:59.185Z,98752.97
2023-05-04T14:08:00.813Z,98750.25
2023-05-04T14:11:02.848Z,98746.09
2023-05-04T14:14:04.487Z,98742.50
2023-05-04T14:17:06.472Z,98731.47
2023-05-04T14:20:10.605Z,98733.06
2023-05-04T14:23:12.194Z,98724.81
2023-05-04T14:26:13.928Z,98721.03
2023-05-04T14:29:15.530Z,98719.91
2023-05-04T14:32:17.324Z,98702.47
2023-05-04T14:35:20.410Z,98701.66
2023-05-04T14:38:21.986Z,98694.22
2023-05-04T14:41:23.673Z,98702.06
2023-05-04T14:44:26.207Z,98690.50
2023-05-04T14:47:28.873Z,98699.75
2023-05-04T14:50:32.210Z,98697.19
2023-05-04T14:53:37.024Z,98694.94
2023-05-04T14:56:41.021Z,98682.91
2023-05-04T14:59:42.925Z,98675.75
2023-05-04T15:02:44.580Z,98676.84
2023-05-04T15:05:47.788Z,98667.00
2023-05-04T15:08:49.415Z,98658.28
2023-05-04T15:11:51.118Z,98659.88
2023-05-04T15:14:53.106Z,98656.25
2023-05-04T15:17:55.423Z,98651.28
2023-05-04T15:20:58.453Z,98654.31
2023-05-04T15:24:00.573Z,98655.38
2023-05-04T15:27:02.506Z,98655.66
2023-05-04T15:30:04.962Z,98651.59
2023-05-04T15:33:07.041Z,98638.19
2023-05-04T15:36:10.370Z,98645.50
2023-05-04T15:39:12.364Z,98631.38
2023-05-04T15:42:14.145Z,98624.78
2023-05-04T15:45:15.805Z,98627.97
2023-05-04T15:48:18.657Z,98621.84
2023-05-04T15:51:21.826Z,98630.00
2023-05-04T15:54:23.829Z,98621.31
2023-05-04T15:57:26.482Z,98623.38
2023-05-04T16:00:28.368Z,98623.25
2023-05-04T16:03:30.847Z,98620.44
2023-05-04T16:06:34.153Z,98620.84
2023-05-04T16:09:36.145Z,98616.56
2023-05-04T16:12:38.234Z,98620.72
2023-05-04T16:15:40.288Z,98605.97
2023-05-04T16:18:41.943Z,98611.38
2023-05-04T16:21:45.190Z,98611.13
2023-05-04T16:24:46.795Z,98596.88
2023-05-04T16:27:48.645Z,98593.31
2023-05-04T16:30:50.547Z,98599.81
2023-05-04T16:33:52.396Z,98593.66
2023-05-04T16:36:55.928Z,98591.69
2023-05-04T16:39:57.630Z,98585.56
2023-05-04T16:42:59.401Z,98587.88
2023-05-04T16:46:01.435Z,98583.09
2023-05-04T16:49:02.966Z,98576.56
2023-05-04T16:52:05.956Z,98577.53
2023-05-04T16:55:10.622Z,98573.44
2023-05-04T16:58:13.389Z,98568.97
2023-05-04T17:01:15.066Z,98571.41
2023-05-04T17:04:16.796Z,98576.03
2023-05-04T17:07:19.956Z,98575.41
2023-05-04T17:10:21.715Z,98560.03
2023-05-04T17:13:23.267Z,98569.09
2023-05-04T17:16:24.887Z,98566.84
2023-05-04T17:19:27.061Z,98574.03
2023-05-04T17:22:30.060Z,98570.41
2023-05-04T17:25:31.556Z,98570.97
2023-05-04T17:28:33.418Z,98563.47
2023-05-04T17:31:35.076Z,98572.75
2023-05-04T17:34:36.851Z,98574.94
2023-05-04T17:37:39.802Z,98570.72
2023-05-04T17:40:41.375Z,98575.47
2023-05-04T17:43:43.044Z,98572.13
2023-05-04T17:46:44.771Z,98573.31
2023-05-04T17:49:47.586Z,98588.22
2023-05-04T17:52:54.367Z,98584.25
2023-05-04T17:55:56.291Z,98584.16
2023-05-04T17:58:58.038Z,98582.09
2023-05-04T18:01:59.867Z,98578.22
2023-05-04T18:05:01.659Z,98582.25
2023-05-04T18:08:05.639Z,98582.88
2023-05-04T18:11:07.327Z,98586.78
2023-05-04T18:14:09.297Z,98590.84
2023-05-04T18:17:10.839Z,98588.56
2023-05-04T18:20:13.307Z,98591.94
2023-05-04T18:23:16.458Z,98589.66
2023-05-04T18:26:19.284Z,98589.31
2023-05-04T18:29:21.440Z,98587.97
2023-05-04T18:32:23.123Z,98590.31
2023-05-04T18:35:24.779Z,98595.06
2023-05-04T18:38:28.507Z,98599.88
2023-05-04T18:41:30.337Z,98598.66
2023-05-04T18:44:32.019Z,98601.88
2023-05-04T18:47:33.723Z,98602.38
2023-05-04T18:50:35.271Z,98605.69
2023-05-04T18:53:38.433Z,98600.72
2023-05-04T18:56:40.369Z,98601.09
2023-05-04T18:59:42.263Z,98597.94
2023-05-04T19:02:43.941Z,98599.13
2023-05-04T19:05:45.775Z,98598.66
2023-05-04T19:08:48.652Z,98598.97
2023-05-04T19:11:50.456Z,98600.19
2023-05-04T19:14:52.101Z,98605.03
2023-05-04T19:17:53.963Z,98604.44
2023-05-04T19:20:55.739Z,98607.63
2023-05-04T19:23:58.933Z,98602.69
2023-05-04T19:27:00.768Z,98602.91
2023-05-04T19:30:02.532Z,98606.72
2023-05-04T19:33:05.608Z,98614.13
2023-05-04T19:36:07.744Z,98611.75
2023-05-04T19:39:10.894Z,98612.09
2023-05-04T19:42:12.443Z,98609.81
2023-05-04T19:45:14.317Z,98606.44
2023-05-04T19:48:17.516Z,98615.56
2023-05-04T19:51:19.473Z,98615.91
2023-05-04T19:54:22.519Z,98604.63
2023-05-04T19:57:24.137Z,98601.34
2023-05-04T20:00:26.148Z,98603.25
2023-05-04T20:03:27.648Z,98598.19
2023-05-04T20:06:29.317Z,98604.78
2023-05-04T20:09:32.530Z,98600.38
2023-05-04T20:12:34.610Z,98596.16
2023-05-04T20:15:36.254Z,98598.06
2023-05-04T20:18:38.059Z,98599.03
2023-05-04T20:21:39.619Z,98605.34
2023-05-04T20:24:42.681Z,98598.25
2023-05-04T20:27:45.462Z,98606.88
2023-05-04T20:30:47.069Z,98597.97
2023-05-04T20:33:48.601Z,98605.16
2023-05-04T20:36:50.335Z,98604.47
2023-05-04T20:39:53.382Z,98594.69
2023-05-04T20:42:55.251Z,98603.78
2023-05-04T20:45:58.472Z,98597.00
2023-05-04T20:49:02.806Z,98587.47
2023-05-04T20:52:05.147Z,98582.50
2023-05-04T20:55:09.234Z,98589.00
2023-05-04T20:58:11.695Z,98581.22
2023-05-04T21:01:13.350Z,98587.66
2023-05-04T21:04:15.375Z,98575.66
2023-05-04T21:07:17.039Z,98581.25
2023-05-04T21:10:21.496Z,98575.28
2023-05-04T21:13:23.426Z,98573.66
2023-05-04T21:16:25.300Z,98574.53
2023-05-04T21:19:27.069Z,98576.41
2023-05-04T21:22:29.479Z,98569.69
2023-05-04T21:25:33.064Z,98565.44
2023-05-04T21:28:34.956Z,98565.72
2023-05-04T21:31:36.597Z,98569.53
2023-05-04T21:34:38.337Z,98556.41
2023-05-04T21:37:39.870Z,98562.13
2023-05-04T21:40:42.903Z,98559.69
2023-05-04T21:43:44.721Z,98561.88
2023-05-04T21:46:46.787Z,98556.59
2023-05-04T21:49:48.481Z,98550.38
2023-05-04T21:52:50.305Z,98551.31
2023-05-04T21:55:53.350Z,98545.88
2023-05-04T21:58:55.037Z,98548.66
2023-05-04T22:01:57.307Z,98552.28
2023-05-04T22:04:58.906Z,98539.06
2023-05-04T22:08:01.037Z,98539.84
2023-05-04T22:11:03.969Z,98542.50
2023-05-04T22:14:05.933Z,98536.38
2023-05-04T22:17:07.781Z,98537.25
2023-05-04T22:20:10.437Z,98535.53
2023-05-04T22:23:12.327Z,98531.38
2023-05-04T22:26:15.401Z,98531.56
2023-05-04T22:29:17.097Z,98530.16
2023-05-04T22:32:18.754Z,98528.44
2023-05-04T22:35:21.008Z,98531.31
2023-05-04T22:38:22.782Z,98528.63
2023-05-04T22:41:25.906Z,98530.53
2023-05-04T22:44:27.547Z,98537.78
2023-05-04T22:47:29.189Z,98529.00
2023-05-04T22:50:31.026Z,98532.59
2023-05-04T22:53:32.632Z,98525.50
2023-05-04T22:56:35.587Z,98530.19
2023-05-04T22:59:37.302Z,98531.03
2023-05-04T23:02:39.219Z,98527.41
2023-05-04T23:05:41.104Z,98530.94
2023-05-04T23:08:43.181Z,98525.00
2023-05-04T23:11:46.286Z,98525.97
2023-05-04T23:14:50.112Z,98527.06
2023-05-04T23:17:51.884Z,98527.25
2023-05-04T23:20:53.442Z,98529.06
2023-05-04T23:23:55.349Z,98536.41
2023-05-04T23:26:58.901Z,98526.97
2023-05-04T23:30:00.696Z,98538.00
2023-05-04T23:33:02.729Z,98530.41
2023-05-04T23:36:04.646Z,98532.38
2023-05-04T23:39:06.681Z,98526.41
2023-05-04T23:42:09.872Z,98525.78
2023-05-04T23:45:11.834Z,98527.06
2023-05-04T23:48:13.374Z,98527.13
2023-05-04T23:51:15.348Z,98519.16
2023-05-04T23:54:17.238Z,98513.06
2023-05-04T23:57:20.156Z,98513.41
